Time;durP1;ratioP1;P1;durP2;ratioP2;P2;SDS_P1;SDS_P2;PMS_P1;PMS_P2;Temp;Humidity;BMP_temperature;BMP_pressure;BME280_temperature;BME280_humidity;BME280_pressure;Samples;Min_cycle;Max_cycle;Signal;HPM_P1;HPM_P2
2023/08/05 00:01:15;;;;;;;5.07;1.90;;;;;;;;;;10560947;28;20428;-75
2023/08/05 00:06:18;;;;;;;2.92;1.70;;;;;;;;;;10556045;28;20042;-75
2023/08/05 00:11:20;;;;;;;2.80;1.60;;;;;;;;;;10559055;28;20443;-76
2023/08/05 00:16:25;;;;;;;3.35;1.60;;;;;;;;;;10556846;28;20040;-75
2023/08/05 00:21:28;;;;;;;3.40;1.65;;;;;;;;;;10554517;28;20048;-75
2023/08/05 00:26:31;;;;;;;3.33;1.70;;;;;;;;;;10553387;28;20028;-75
2023/08/05 00:31:35;;;;;;;6.40;1.75;;;;;;;;;;10561005;28;20044;-75
2023/08/05 00:36:37;;;;;;;3.10;1.70;;;;;;;;;;10557723;28;20410;-75
2023/08/05 00:41:40;;;;;;;3.50;1.90;;;;;;;;;;10556041;28;20071;-76
2023/08/05 00:46:44;;;;;;;1.80;1.43;;;;;;;;;;10552946;28;20111;-76
2023/08/05 00:51:48;;;;;;;2.88;1.63;;;;;;;;;;10550333;28;20059;-76
2023/08/05 00:56:51;;;;;;;3.30;1.70;;;;;;;;;;10561353;28;20060;-76
2023/08/05 01:01:55;;;;;;;2.70;1.60;;;;;;;;;;10554567;28;20052;-75
2023/08/05 01:06:59;;;;;;;3.45;1.80;;;;;;;;;;10560589;27;20050;-75
2023/08/05 01:12:02;;;;;;;4.03;1.98;;;;;;;;;;10569915;27;20118;-76
2023/08/05 01:17:08;;;;;;;5.40;1.92;;;;;;;;;;10580389;27;20066;-76
2023/08/05 01:22:15;;;;;;;6.10;2.25;;;;;;;;;;10564026;27;20115;-76
2023/08/05 01:27:20;;;;;;;3.50;2.00;;;;;;;;;;10564392;27;20143;-76
2023/08/05 01:32:23;;;;;;;4.05;2.08;;;;;;;;;;10549235;27;20111;-76
2023/08/05 01:37:26;;;;;;;5.35;2.30;;;;;;;;;;10562772;27;20035;-75
2023/08/05 01:42:30;;;;;;;4.53;2.53;;;;;;;;;;10560569;27;20035;-75
2023/08/05 01:47:33;;;;;;;5.47;2.08;;;;;;;;;;10570815;27;20300;-75
2023/08/05 01:52:36;;;;;;;3.88;2.15;;;;;;;;;;10560081;27;20060;-76
2023/08/05 01:57:40;;;;;;;4.90;2.20;;;;;;;;;;10564021;27;20494;-76
2023/08/05 02:02:43;;;;;;;5.28;2.70;;;;;;;;;;10561026;27;20132;-75
2023/08/05 02:07:46;;;;;;;3.33;2.45;;;;;;;;;;10577548;27;20031;-76
2023/08/05 02:12:50;;;;;;;4.90;2.63;;;;;;;;;;10576465;27;20044;-76
2023/08/05 02:17:52;;;;;;;6.07;2.72;;;;;;;;;;10557362;27;20486;-76
2023/08/05 02:22:55;;;;;;;3.97;2.10;;;;;;;;;;10561129;27;20067;-76
2023/08/05 02:27:59;;;;;;;3.08;2.00;;;;;;;;;;10556540;27;20036;-76
2023/08/05 02:33:02;;;;;;;2.78;1.60;;;;;;;;;;10564036;27;20035;-76
2023/08/05 02:38:04;;;;;;;2.75;1.50;;;;;;;;;;10552095;27;20084;-76
2023/08/05 02:43:08;;;;;;;1.73;1.30;;;;;;;;;;10553925;27;20071;-76
2023/08/05 02:48:11;;;;;;;3.13;1.20;;;;;;;;;;10571658;27;20036;-76
2023/08/05 02:53:14;;;;;;;1.88;1.40;;;;;;;;;;10559043;27;20039;-76
2023/08/05 02:58:18;;;;;;;1.75;1.27;;;;;;;;;;10556709;27;20038;-77
2023/08/05 03:03:21;;;;;;;2.55;1.10;;;;;;;;;;10567060;27;20467;-76
2023/08/05 03:08:24;;;;;;;3.75;1.10;;;;;;;;;;10557030;27;20123;-75
2023/08/05 03:13:28;;;;;;;1.55;1.02;;;;;;;;;;10562895;27;20120;-76
2023/08/05 03:18:31;;;;;;;2.95;0.85;;;;;;;;;;10558646;27;20042;-76
2023/08/05 03:23:33;;;;;;;1.75;1.17;;;;;;;;;;10556479;27;20040;-76
2023/08/05 03:28:38;;;;;;;1.88;1.10;;;;;;;;;;10556859;27;20498;-76
2023/08/05 03:33:42;;;;;;;3.92;1.52;;;;;;;;;;10556024;27;20108;-76
2023/08/05 03:38:44;;;;;;;4.68;1.75;;;;;;;;;;10554555;27;20146;-76
2023/08/05 03:43:48;;;;;;;3.55;1.50;;;;;;;;;;10557474;27;20042;-77
2023/08/05 03:48:51;;;;;;;3.25;1.35;;;;;;;;;;10556336;27;20046;-76
2023/08/05 03:53:53;;;;;;;2.75;1.58;;;;;;;;;;10566796;27;20039;-76
2023/08/05 03:58:58;;;;;;;3.53;2.00;;;;;;;;;;10556999;28;20036;-76
2023/08/05 04:04:00;;;;;;;2.00;1.50;;;;;;;;;;10567884;28;20071;-76
2023/08/05 04:09:05;;;;;;;3.67;2.30;;;;;;;;;;10552830;28;20036;-76
2023/08/05 04:14:10;;;;;;;4.40;2.42;;;;;;;;;;10559714;28;20406;-75
2023/08/05 04:19:13;;;;;;;3.92;2.50;;;;;;;;;;10562315;28;20056;-75
2023/08/05 04:24:16;;;;;;;4.03;2.40;;;;;;;;;;10557586;28;20127;-75
2023/08/05 04:29:22;;;;;;;4.22;2.63;;;;;;;;;;10561729;28;20044;-76
2023/08/05 04:34:25;;;;;;;4.68;2.85;;;;;;;;;;10557018;28;20085;-76
2023/08/05 04:39:28;;;;;;;6.65;3.17;;;;;;;;;;10560733;27;20035;-76
2023/08/05 04:44:32;;;;;;;5.75;3.17;;;;;;;;;;10566859;27;20051;-75
2023/08/05 04:49:34;;;;;;;5.35;2.90;;;;;;;;;;10567849;27;20036;-75
2023/08/05 04:54:39;;;;;;;7.28;4.00;;;;;;;;;;10569571;27;20119;-75
2023/08/05 04:59:43;;;;;;;4.82;3.00;;;;;;;;;;10563381;27;20047;-76
2023/08/05 05:04:45;;;;;;;6.82;3.65;;;;;;;;;;10567378;27;20131;-75
2023/08/05 05:09:48;;;;;;;6.15;3.45;;;;;;;;;;10559100;27;20054;-76
2023/08/05 05:14:52;;;;;;;7.93;3.85;;;;;;;;;;10562494;27;20481;-75
2023/08/05 05:19:54;;;;;;;7.72;3.92;;;;;;;;;;10564411;27;20128;-76
2023/08/05 05:24:57;;;;;;;7.75;4.30;;;;;;;;;;10565407;27;20036;-76
2023/08/05 05:30:01;;;;;;;5.97;3.50;;;;;;;;;;10559540;27;20124;-75
2023/08/05 05:35:04;;;;;;;9.07;3.95;;;;;;;;;;10565053;27;20150;-75
2023/08/05 05:40:07;;;;;;;8.57;4.13;;;;;;;;;;10560828;27;20072;-75
2023/08/05 05:45:12;;;;;;;8.07;3.88;;;;;;;;;;10573354;27;20487;-76
2023/08/05 05:50:16;;;;;;;7.60;3.80;;;;;;;;;;10563468;27;20464;-75
2023/08/05 05:55:19;;;;;;;7.13;4.00;;;;;;;;;;10555273;27;20031;-75
2023/08/05 06:00:23;;;;;;;7.55;3.78;;;;;;;;;;10562597;27;20039;-75
2023/08/05 06:05:26;;;;;;;6.63;3.65;;;;;;;;;;10563036;27;20402;-75
2023/08/05 06:10:28;;;;;;;8.83;4.60;;;;;;;;;;10556158;27;20530;-75
2023/08/05 06:15:33;;;;;;;6.70;3.60;;;;;;;;;;10552487;27;20130;-75
2023/08/05 06:20:35;;;;;;;8.73;4.30;;;;;;;;;;10539633;27;20320;-75
2023/08/05 06:25:38;;;;;;;7.87;3.90;;;;;;;;;;10557373;27;20044;-75
2023/08/05 06:30:44;;;;;;;7.10;4.17;;;;;;;;;;10562269;27;20371;-75
2023/08/05 06:35:47;;;;;;;8.00;4.65;;;;;;;;;;10561595;27;20301;-74
2023/08/05 06:40:51;;;;;;;7.45;4.53;;;;;;;;;;10568875;27;20482;-75
2023/08/05 06:45:55;;;;;;;7.40;4.38;;;;;;;;;;10560053;27;20047;-75
2023/08/05 06:50:58;;;;;;;9.77;4.68;;;;;;;;;;10553828;27;20057;-75
2023/08/05 06:56:01;;;;;;;8.43;4.75;;;;;;;;;;10562842;27;20050;-75
2023/08/05 07:01:05;;;;;;;10.25;4.97;;;;;;;;;;10569412;27;20173;-76
2023/08/05 07:06:07;;;;;;;8.70;4.53;;;;;;;;;;10561266;27;20043;-76
2023/08/05 07:11:10;;;;;;;7.45;4.55;;;;;;;;;;10562809;27;20036;-75
2023/08/05 07:16:17;;;;;;;7.63;4.45;;;;;;;;;;10565790;27;20088;-75
2023/08/05 07:21:20;;;;;;;7.10;4.28;;;;;;;;;;10565369;27;20054;-75
2023/08/05 07:26:22;;;;;;;7.07;4.00;;;;;;;;;;10551534;27;20048;-75
2023/08/05 07:31:26;;;;;;;6.80;4.07;;;;;;;;;;10561407;27;20551;-75
2023/08/05 07:36:29;;;;;;;6.20;4.05;;;;;;;;;;10556158;27;20039;-76
2023/08/05 07:41:32;;;;;;;6.57;3.43;;;;;;;;;;10562271;27;20156;-75
2023/08/05 07:46:37;;;;;;;7.67;4.33;;;;;;;;;;10555436;27;20036;-76
2023/08/05 07:51:40;;;;;;;6.35;3.95;;;;;;;;;;10561042;28;20774;-76
2023/08/05 07:56:43;;;;;;;5.55;3.65;;;;;;;;;;10558877;28;20082;-75
2023/08/05 08:01:47;;;;;;;9.00;3.70;;;;;;;;;;10554264;28;20131;-76
2023/08/05 08:06:50;;;;;;;6.68;4.10;;;;;;;;;;10569982;28;20150;-75
2023/08/05 08:11:53;;;;;;;7.13;3.90;;;;;;;;;;10563175;28;20134;-76
2023/08/05 08:16:57;;;;;;;7.07;3.90;;;;;;;;;;10562360;27;20050;-75
2023/08/05 08:22:00;;;;;;;7.40;3.78;;;;;;;;;;10574143;27;20478;-76
2023/08/05 08:27:03;;;;;;;6.85;3.88;;;;;;;;;;10568213;27;20081;-76
2023/08/05 08:32:08;;;;;;;6.95;3.95;;;;;;;;;;10570455;27;20059;-75
2023/08/05 08:37:11;;;;;;;7.32;2.95;;;;;;;;;;10564482;27;20044;-76
2023/08/05 08:42:14;;;;;;;6.80;3.22;;;;;;;;;;10567340;27;20047;-76
2023/08/05 08:47:19;;;;;;;6.82;3.65;;;;;;;;;;10569469;27;20044;-76
2023/08/05 08:52:21;;;;;;;6.45;3.67;;;;;;;;;;10566889;27;20038;-75
2023/08/05 08:57:24;;;;;;;6.10;3.40;;;;;;;;;;10571256;27;20040;-76
2023/08/05 09:02:29;;;;;;;7.07;3.53;;;;;;;;;;10568891;27;20067;-76
2023/08/05 09:07:32;;;;;;;12.60;6.30;;;;;;;;;;10564869;27;20046;-76
2023/08/05 09:12:35;;;;;;;6.27;3.63;;;;;;;;;;10566325;27;20131;-75
2023/08/05 09:17:38;;;;;;;;;;;;;;;;;;10561534;27;20569;-76
2023/08/05 09:22:52;;;;;;;6.78;3.08;;;;;;;;;;10562030;28;19952;-76
2023/08/05 09:27:56;;;;;;;5.30;2.97;;;;;;;;;;10557283;28;20045;-76
2023/08/05 09:32:58;;;;;;;7.13;4.20;;;;;;;;;;10561676;28;20043;-76
2023/08/05 09:38:03;;;;;;;5.70;3.38;;;;;;;;;;10555960;28;20664;-76
2023/08/05 09:43:08;;;;;;;5.75;3.50;;;;;;;;;;10564455;28;20067;-76
2023/08/05 09:48:13;;;;;;;6.85;4.68;;;;;;;;;;10569771;28;20038;-76
2023/08/05 09:53:19;;;;;;;6.78;4.50;;;;;;;;;;10561727;28;20047;-75
2023/08/05 09:58:23;;;;;;;6.13;4.25;;;;;;;;;;10561965;28;20046;-74
2023/08/05 10:03:27;;;;;;;8.90;4.78;;;;;;;;;;10534087;28;20051;-76
2023/08/05 10:08:32;;;;;;;6.80;4.28;;;;;;;;;;10562933;28;20086;-76
2023/08/05 10:13:37;;;;;;;7.75;4.90;;;;;;;;;;10560369;28;20490;-75
2023/08/05 10:18:41;;;;;;;7.85;5.05;;;;;;;;;;10514774;28;1158887;-75
2023/08/05 10:24:00;;;;;;;8.75;5.40;;;;;;;;;;10560122;27;20050;-75
2023/08/05 10:29:25;;;;;;;7.55;5.03;;;;;;;;;;10560074;27;20120;-75
2023/08/05 10:34:28;;;;;;;9.13;5.32;;;;;;;;;;10558308;27;20043;-75
2023/08/05 10:39:44;;;;;;;9.67;5.00;;;;;;;;;;10563538;27;20043;-75
2023/08/05 10:44:49;;;;;;;7.60;4.88;;;;;;;;;;10562871;27;20039;-76
2023/08/05 10:49:55;;;;;;;11.27;5.60;;;;;;;;;;10565310;27;20066;-75
2023/08/05 10:55:03;;;;;;;10.10;5.07;;;;;;;;;;10566436;27;20154;-75
2023/08/05 11:00:07;;;;;;;7.80;5.50;;;;;;;;;;10561503;27;20134;-75
2023/08/05 11:05:11;;;;;;;10.73;5.63;;;;;;;;;;10561550;27;20043;-75
2023/08/05 11:10:15;;;;;;;8.07;4.88;;;;;;;;;;10553717;27;20047;-75
2023/08/05 11:15:18;;;;;;;7.97;5.40;;;;;;;;;;10563654;27;20532;-76
2023/08/05 11:20:21;;;;;;;8.40;5.35;;;;;;;;;;10557737;27;20222;-76
2023/08/05 11:25:25;;;;;;;8.82;5.70;;;;;;;;;;10566941;27;20061;-76
2023/08/05 11:30:29;;;;;;;7.07;5.32;;;;;;;;;;10560365;27;20035;-75
2023/08/05 11:35:32;;;;;;;7.10;5.20;;;;;;;;;;10566841;27;20512;-75
2023/08/05 11:40:40;;;;;;;7.07;5.25;;;;;;;;;;10560408;27;20451;-76
2023/08/05 11:45:43;;;;;;;8.40;5.78;;;;;;;;;;10566266;27;20452;-75
2023/08/05 11:50:46;;;;;;;;;;;;;;;;;;10563349;27;20065;-76
2023/08/05 11:55:50;;;;;;;7.93;5.60;;;;;;;;;;10557744;27;19919;-75
2023/08/05 12:00:53;;;;;;;7.93;5.72;;;;;;;;;;10557023;28;20146;-76
2023/08/05 12:06:01;;;;;;;7.47;5.40;;;;;;;;;;10555626;28;20133;-76
2023/08/05 12:11:05;;;;;;;7.75;5.00;;;;;;;;;;10559295;28;20449;-76
2023/08/05 12:16:14;;;;;;;7.57;5.10;;;;;;;;;;10542865;28;20043;-76
2023/08/05 12:21:18;;;;;;;7.07;4.70;;;;;;;;;;10558470;28;20028;-74
2023/08/05 12:26:21;;;;;;;;;;;;;;;;;;10555989;28;20040;-76
2023/08/05 12:31:25;;;;;;;7.15;4.50;;;;;;;;;;10567707;28;19942;-76
2023/08/05 12:36:28;;;;;;;6.38;4.60;;;;;;;;;;10559458;28;20043;-76
2023/08/05 12:41:31;;;;;;;7.97;5.00;;;;;;;;;;10557613;28;20046;-77
2023/08/05 12:46:35;;;;;;;8.73;5.55;;;;;;;;;;10552885;28;20100;-77
2023/08/05 12:51:38;;;;;;;10.50;4.65;;;;;;;;;;10556081;28;20071;-75
2023/08/05 12:56:41;;;;;;;20.73;11.80;;;;;;;;;;10552501;28;20230;-76
2023/08/05 13:01:46;;;;;;;11.05;5.25;;;;;;;;;;10557422;28;20066;-77
2023/08/05 13:06:49;;;;;;;7.20;4.47;;;;;;;;;;10570308;27;20497;-76
2023/08/05 13:11:52;;;;;;;8.57;4.75;;;;;;;;;;10571722;27;20328;-75
2023/08/05 13:16:56;;;;;;;10.13;5.28;;;;;;;;;;10569272;27;20067;-75
2023/08/05 13:21:59;;;;;;;11.82;5.65;;;;;;;;;;10560866;27;20436;-75
2023/08/05 13:27:02;;;;;;;;;;;;;;;;;;10563237;27;20040;-76
2023/08/05 13:32:07;;;;;;;9.90;5.85;;;;;;;;;;10572455;27;20417;-75
2023/08/05 13:37:09;;;;;;;8.25;5.40;;;;;;;;;;10566386;27;20048;-76
2023/08/05 13:42:12;;;;;;;10.02;5.50;;;;;;;;;;10560597;27;20036;-76
2023/08/05 13:47:16;;;;;;;10.93;5.47;;;;;;;;;;10548369;27;20043;-76
2023/08/05 13:52:19;;;;;;;9.88;4.57;;;;;;;;;;10565340;27;20039;-75
2023/08/05 13:57:21;;;;;;;6.60;4.30;;;;;;;;;;10557628;27;20119;-76
2023/08/05 14:02:25;;;;;;;7.50;4.90;;;;;;;;;;10566946;27;20035;-76
2023/08/05 14:07:28;;;;;;;9.68;5.45;;;;;;;;;;10564318;27;20310;-76
2023/08/05 14:12:31;;;;;;;15.50;9.30;;;;;;;;;;10562254;27;20035;-76
2023/08/05 14:17:35;;;;;;;8.82;4.85;;;;;;;;;;10557086;27;20085;-75
2023/08/05 14:22:38;;;;;;;8.38;4.75;;;;;;;;;;10556793;27;20058;-76
2023/08/05 14:27:41;;;;;;;6.38;4.05;;;;;;;;;;10577725;27;20169;-76
2023/08/05 14:32:45;;;;;;;5.63;4.07;;;;;;;;;;10558291;27;20383;-76
2023/08/05 14:37:48;;;;;;;8.07;5.20;;;;;;;;;;10558367;27;20635;-76
2023/08/05 14:42:50;;;;;;;8.98;4.97;;;;;;;;;;10544798;27;20123;-75
2023/08/05 14:47:54;;;;;;;8.07;5.17;;;;;;;;;;10555444;27;20055;-76
2023/08/05 14:52:57;;;;;;;6.05;4.10;;;;;;;;;;10569666;27;20399;-76
2023/08/05 14:57:59;;;;;;;8.02;5.10;;;;;;;;;;10554337;27;20040;-76
2023/08/05 15:03:03;;;;;;;8.70;4.43;;;;;;;;;;10568239;27;20063;-75
2023/08/05 15:08:06;;;;;;;7.55;4.90;;;;;;;;;;10566219;27;20305;-74
2023/08/05 15:13:09;;;;;;;9.48;5.72;;;;;;;;;;10582119;27;20095;-76
2023/08/05 15:18:13;;;;;;;9.27;5.40;;;;;;;;;;10566382;27;20528;-76
2023/08/05 15:23:16;;;;;;;7.63;5.03;;;;;;;;;;10560958;27;20040;-76
2023/08/05 15:28:31;;;;;;;8.60;4.88;;;;;;;;;;10561100;27;20050;-76
2023/08/05 15:33:35;;;;;;;9.95;5.22;;;;;;;;;;10563571;27;20035;-76
2023/08/05 15:38:38;;;;;;;8.35;5.30;;;;;;;;;;10553898;27;20043;-76
2023/08/05 15:43:41;;;;;;;9.37;5.53;;;;;;;;;;10568268;27;20036;-75
2023/08/05 15:48:45;;;;;;;7.77;5.00;;;;;;;;;;10566184;27;20048;-76
2023/08/05 15:53:47;;;;;;;8.70;3.95;;;;;;;;;;10565476;27;20307;-76
2023/08/05 15:58:50;;;;;;;6.50;3.60;;;;;;;;;;10563344;27;20112;-76
2023/08/05 16:03:54;;;;;;;7.20;3.57;;;;;;;;;;10578838;27;20118;-76
2023/08/05 16:08:57;;;;;;;7.22;4.15;;;;;;;;;;10564228;28;20301;-76
2023/08/05 16:14:00;;;;;;;7.07;3.37;;;;;;;;;;10557787;28;20036;-76
2023/08/05 16:19:04;;;;;;;9.02;5.10;;;;;;;;;;10569444;28;20312;-75
2023/08/05 16:24:06;;;;;;;8.50;4.45;;;;;;;;;;10557834;28;20044;-75
2023/08/05 16:29:09;;;;;;;7.03;4.63;;;;;;;;;;10566703;28;20112;-77
2023/08/05 16:34:14;;;;;;;8.77;5.55;;;;;;;;;;10563679;28;20036;-76
2023/08/05 16:39:16;;;;;;;8.98;5.43;;;;;;;;;;10569153;27;20510;-76
2023/08/05 16:44:20;;;;;;;9.15;5.30;;;;;;;;;;10574252;27;20046;-76
2023/08/05 16:49:24;;;;;;;10.45;4.90;;;;;;;;;;10567707;27;20557;-75
2023/08/05 16:54:26;;;;;;;9.43;5.68;;;;;;;;;;10566909;27;20189;-76
2023/08/05 16:59:29;;;;;;;7.93;4.80;;;;;;;;;;10558054;27;20046;-76
2023/08/05 17:04:33;;;;;;;8.23;5.07;;;;;;;;;;10563170;27;20520;-76
2023/08/05 17:09:35;;;;;;;8.40;5.40;;;;;;;;;;10554176;27;20035;-76
2023/08/05 17:14:38;;;;;;;9.93;4.93;;;;;;;;;;10566704;27;20242;-75
2023/08/05 17:19:42;;;;;;;7.23;4.90;;;;;;;;;;10566757;27;20122;-76
2023/08/05 17:24:45;;;;;;;9.00;5.10;;;;;;;;;;10570232;27;20498;-75
2023/08/05 17:29:49;;;;;;;8.53;4.60;;;;;;;;;;10566440;27;20071;-75
2023/08/05 17:34:53;;;;;;;5.95;3.72;;;;;;;;;;10569262;27;20048;-75
2023/08/05 17:39:58;;;;;;;5.47;3.33;;;;;;;;;;10557878;27;20506;-75
2023/08/05 17:45:04;;;;;;;6.95;3.13;;;;;;;;;;10560551;27;20043;-76
2023/08/05 17:50:08;;;;;;;5.60;3.37;;;;;;;;;;10569322;27;20122;-75
2023/08/05 17:55:11;;;;;;;6.65;4.13;;;;;;;;;;10572490;27;20396;-75
2023/08/05 18:00:14;;;;;;;5.43;3.42;;;;;;;;;;10563248;27;20061;-75
2023/08/05 18:05:18;;;;;;;7.20;4.30;;;;;;;;;;10562478;27;20056;-75
2023/08/05 18:10:21;;;;;;;7.07;3.72;;;;;;;;;;10560355;27;20058;-75
2023/08/05 18:15:24;;;;;;;3.30;2.05;;;;;;;;;;10571334;27;20067;-75
2023/08/05 18:20:29;;;;;;;7.75;4.53;;;;;;;;;;10563739;27;20494;-75
2023/08/05 18:25:32;;;;;;;9.07;4.43;;;;;;;;;;10566698;27;20115;-75
2023/08/05 18:30:35;;;;;;;10.43;4.43;;;;;;;;;;10566600;27;20489;-75
2023/08/05 18:35:39;;;;;;;7.38;3.92;;;;;;;;;;10558490;27;20035;-75
2023/08/05 18:40:42;;;;;;;12.32;5.85;;;;;;;;;;10559503;27;20048;-75
2023/08/05 18:45:52;;;;;;;12.03;5.23;;;;;;;;;;10566994;27;20047;-75
2023/08/05 18:50:56;;;;;;;5.85;2.70;;;;;;;;;;10570491;27;20043;-76
2023/08/05 18:55:59;;;;;;;7.53;4.45;;;;;;;;;;10566008;27;20546;-76
2023/08/05 19:01:06;;;;;;;3.67;2.22;;;;;;;;;;10555381;27;20397;-76
2023/08/05 19:06:10;;;;;;;9.02;2.10;;;;;;;;;;10566829;27;20043;-75
2023/08/05 19:11:14;;;;;;;4.65;2.33;;;;;;;;;;10565212;27;20409;-75
2023/08/05 19:16:17;;;;;;;;;;;;;;;;;;10556831;27;20032;-75
2023/08/05 19:21:21;;;;;;;7.72;3.97;;;;;;;;;;10570239;27;20366;-77
2023/08/05 19:26:24;;;;;;;6.22;3.08;;;;;;;;;;10561841;27;20472;-75
2023/08/05 19:31:26;;;;;;;4.32;2.30;;;;;;;;;;10566441;27;20042;-76
2023/08/05 19:36:30;;;;;;;5.87;3.10;;;;;;;;;;10559142;27;20044;-78
2023/08/05 19:41:33;;;;;;;4.30;2.40;;;;;;;;;;10556224;27;20413;-76
2023/08/05 19:46:36;;;;;;;6.10;3.30;;;;;;;;;;10557036;27;20434;-77
2023/08/05 19:51:40;;;;;;;10.30;4.87;;;;;;;;;;10563483;27;20032;-77
2023/08/05 19:56:42;;;;;;;6.38;3.50;;;;;;;;;;10561178;27;20044;-77
2023/08/05 20:01:45;;;;;;;4.90;2.88;;;;;;;;;;10566488;27;20044;-77
2023/08/05 20:06:49;;;;;;;6.43;3.22;;;;;;;;;;10554453;28;20418;-77
2023/08/05 20:11:52;;;;;;;6.03;3.15;;;;;;;;;;10566288;27;20050;-77
2023/08/05 20:16:54;;;;;;;7.18;3.80;;;;;;;;;;10565602;27;20146;-77
2023/08/05 20:21:59;;;;;;;6.55;3.67;;;;;;;;;;10564401;27;20385;-77
2023/08/05 20:27:01;;;;;;;7.88;3.45;;;;;;;;;;10560484;27;20043;-77
2023/08/05 20:32:04;;;;;;;8.50;3.50;;;;;;;;;;10574322;27;20042;-77
2023/08/05 20:37:08;;;;;;;8.83;3.60;;;;;;;;;;10562039;27;20494;-77
2023/08/05 20:42:10;;;;;;;7.40;3.97;;;;;;;;;;10566754;27;20050;-78
2023/08/05 20:47:13;;;;;;;7.65;3.85;;;;;;;;;;10569421;27;20047;-77
2023/08/05 20:52:17;;;;;;;7.72;3.92;;;;;;;;;;10567421;27;20043;-77
2023/08/05 20:57:21;;;;;;;10.18;4.40;;;;;;;;;;10572144;27;20065;-78
2023/08/05 21:02:23;;;;;;;10.23;4.43;;;;;;;;;;10567375;27;20039;-77
2023/08/05 21:07:30;;;;;;;9.82;4.40;;;;;;;;;;10566798;27;20448;-76
2023/08/05 21:12:32;;;;;;;10.90;5.35;;;;;;;;;;10568389;27;20052;-75
2023/08/05 21:17:36;;;;;;;9.45;4.32;;;;;;;;;;10561569;27;20092;-76
2023/08/05 21:22:40;;;;;;;7.30;3.95;;;;;;;;;;10553755;27;20040;-75
2023/08/05 21:27:43;;;;;;;10.40;4.25;;;;;;;;;;10559852;27;20051;-75
2023/08/05 21:32:45;;;;;;;8.60;3.83;;;;;;;;;;10564095;27;20046;-75
2023/08/05 21:37:49;;;;;;;7.28;4.13;;;;;;;;;;10560718;27;20055;-75
2023/08/05 21:42:52;;;;;;;10.55;4.53;;;;;;;;;;10566173;27;20048;-75
2023/08/05 21:47:55;;;;;;;7.93;3.80;;;;;;;;;;10556295;27;20046;-75
2023/08/05 21:52:59;;;;;;;11.07;4.47;;;;;;;;;;10562692;27;20050;-75
2023/08/05 21:58:01;;;;;;;11.18;4.47;;;;;;;;;;10569417;27;20049;-75
2023/08/05 22:03:04;;;;;;;8.45;4.50;;;;;;;;;;10563708;27;20207;-75
2023/08/05 22:08:09;;;;;;;9.70;4.28;;;;;;;;;;10560694;27;20065;-76
2023/08/05 22:13:11;;;;;;;10.93;4.47;;;;;;;;;;10565377;27;20032;-75
2023/08/05 22:18:14;;;;;;;11.60;5.13;;;;;;;;;;10559527;27;20071;-75
2023/08/05 22:23:18;;;;;;;9.48;4.93;;;;;;;;;;10548786;27;20035;-75
2023/08/05 22:28:21;;;;;;;7.97;4.18;;;;;;;;;;10579590;27;20043;-77
2023/08/05 22:33:24;;;;;;;7.93;4.10;;;;;;;;;;10561327;27;20043;-75
2023/08/05 22:38:28;;;;;;;7.70;4.17;;;;;;;;;;10565601;27;20040;-77
2023/08/05 22:43:30;;;;;;;4.85;2.58;;;;;;;;;;10547616;27;20059;-76
2023/08/05 22:48:33;;;;;;;5.88;3.30;;;;;;;;;;10576958;27;20710;-74
2023/08/05 22:53:37;;;;;;;7.13;3.37;;;;;;;;;;10575831;27;20055;-76
2023/08/05 22:58:40;;;;;;;6.82;3.40;;;;;;;;;;10576856;27;20043;-74
2023/08/05 23:03:42;;;;;;;6.63;3.33;;;;;;;;;;10576384;27;20126;-75
2023/08/05 23:08:47;;;;;;;6.97;3.20;;;;;;;;;;10572218;27;20043;-75
2023/08/05 23:13:49;;;;;;;7.38;3.20;;;;;;;;;;10566809;27;20043;-74
2023/08/05 23:18:52;;;;;;;6.50;3.33;;;;;;;;;;10568593;27;20039;-76
2023/08/05 23:23:56;;;;;;;5.65;2.92;;;;;;;;;;10565139;27;20031;-75
2023/08/05 23:28:59;;;;;;;7.03;3.58;;;;;;;;;;10571196;27;20549;-75
2023/08/05 23:34:01;;;;;;;5.10;3.30;;;;;;;;;;10584618;27;20046;-76
2023/08/05 23:39:06;;;;;;;7.20;3.67;;;;;;;;;;10578917;27;20126;-76
2023/08/05 23:44:08;;;;;;;7.22;3.42;;;;;;;;;;10571622;27;20040;-76
2023/08/05 23:49:11;;;;;;;4.18;1.90;;;;;;;;;;10566862;27;20047;-76
2023/08/05 23:54:15;;;;;;;9.07;3.95;;;;;;;;;;10568889;27;20087;-76
2023/08/05 23:59:18;;;;;;;7.53;3.63;;;;;;;;;;10560224;27;20490;-76
